Ímóti Sřrvági

Vevmynd ímóti Sřrvági

Terminalur Ímóti Miđvági


Veđriđ á flogvřllinum (metar):

EKVG 191720Z AUTO 25017KT 2900NDV DZ BR OVC003/// 06/06 Q1009

METAR / TAF frá DMI fyri Vágar                      Veđurtíđindi frá Vága Floghavn

Atlantic Airways

Atlantic Airways heimasíđa

Tíđindi    .

26. januar 2015
Áheitan viđvíkjandi lasaraljós

Veđriđ

Kunning

Vevmyndir

Terminalur